createdAt,value
2017-08-05T00:00:30.490Z,0
2017-08-05T00:01:31.983Z,0
2017-08-05T00:02:33.366Z,0
2017-08-05T00:03:34.870Z,0
2017-08-05T00:04:36.248Z,0
2017-08-05T00:05:38.132Z,0
2017-08-05T00:06:39.511Z,0
2017-08-05T00:07:40.947Z,0
2017-08-05T00:08:42.320Z,0
2017-08-05T00:09:43.817Z,0
2017-08-05T00:10:45.195Z,0
2017-08-05T00:11:46.694Z,0
2017-08-05T00:12:48.101Z,0
2017-08-05T00:13:49.575Z,0
2017-08-05T00:14:50.901Z,0
2017-08-05T00:15:52.459Z,0
2017-08-05T00:16:53.842Z,0
2017-08-05T00:17:55.339Z,0
2017-08-05T00:18:56.727Z,0
2017-08-05T00:19:58.221Z,0
2017-08-05T00:20:59.605Z,0
2017-08-05T00:22:01.116Z,0
2017-08-05T00:23:02.495Z,0
2017-08-05T00:24:04.005Z,0
2017-08-05T00:25:05.364Z,0
2017-08-05T00:26:06.859Z,0
2017-08-05T00:27:08.625Z,0
2017-08-05T00:28:10.047Z,0
2017-08-05T00:29:11.430Z,0
2017-08-05T00:30:12.925Z,0
2017-08-05T00:31:14.690Z,0
2017-08-05T00:32:16.114Z,0
2017-08-05T00:33:17.499Z,0
2017-08-05T00:34:19.018Z,0
2017-08-05T00:35:20.377Z,0
2017-08-05T00:36:21.903Z,0
2017-08-05T00:37:23.273Z,0
2017-08-05T00:38:25.136Z,0
2017-08-05T00:39:26.523Z,0
2017-08-05T00:40:27.944Z,0
2017-08-05T00:41:29.695Z,0
2017-08-05T00:42:31.156Z,0
2017-08-05T00:43:32.505Z,0
2017-08-05T00:44:34.388Z,0
2017-08-05T00:45:36.150Z,0
2017-08-05T00:46:37.815Z,0
2017-08-05T00:47:39.877Z,0
2017-08-05T00:48:41.696Z,0
2017-08-05T00:49:43.079Z,0
2017-08-05T00:50:44.500Z,0
2017-08-05T00:51:45.869Z,0
2017-08-05T00:52:47.377Z,0
2017-08-05T00:53:48.749Z,0
2017-08-05T00:54:50.638Z,0
2017-08-05T00:55:52.018Z,0
2017-08-05T00:56:53.822Z,0
2017-08-05T00:57:55.204Z,0
2017-08-05T00:58:56.637Z,0
2017-08-05T00:59:58.010Z,0
2017-08-05T01:00:59.893Z,0
2017-08-05T01:02:01.268Z,0
2017-08-05T01:03:02.726Z,0
2017-08-05T01:04:04.110Z,0
2017-08-05T01:05:05.960Z,0
2017-08-05T01:06:07.334Z,0
2017-08-05T01:07:08.769Z,0
2017-08-05T01:08:10.528Z,0
2017-08-05T01:09:11.956Z,0
2017-08-05T01:10:13.338Z,0
2017-08-05T01:11:14.839Z,0
2017-08-05T01:12:16.212Z,0
2017-08-05T01:13:17.716Z,0
2017-08-05T01:14:19.098Z,0
2017-08-05T01:15:20.980Z,0
2017-08-05T01:16:22.749Z,0
2017-08-05T01:17:24.403Z,0
2017-08-05T01:18:25.775Z,0
2017-08-05T01:19:27.659Z,0
2017-08-05T01:20:29.416Z,0
2017-08-05T01:21:31.086Z,0
2017-08-05T01:22:32.471Z,0
2017-08-05T01:23:33.962Z,0
2017-08-05T01:24:35.342Z,0
2017-08-05T01:25:36.844Z,0
2017-08-05T01:26:38.219Z,0
2017-08-05T01:27:39.724Z,0
2017-08-05T01:28:41.109Z,0
2017-08-05T01:29:42.636Z,0
2017-08-05T01:30:44.012Z,0
2017-08-05T01:31:45.484Z,0
2017-08-05T01:32:47.247Z,0
2017-08-05T01:33:48.674Z,0
2017-08-05T01:34:50.061Z,0
2017-08-05T01:35:51.554Z,0
2017-08-05T01:36:52.889Z,0
2017-08-05T01:37:54.432Z,0
2017-08-05T01:38:56.192Z,0
2017-08-05T01:39:57.618Z,0
2017-08-05T01:40:59.015Z,0
2017-08-05T01:42:00.881Z,0
2017-08-05T01:43:02.306Z,0
2017-08-05T01:44:04.374Z,0
2017-08-05T01:45:06.148Z,0
2017-08-05T01:46:07.876Z,0
2017-08-05T01:47:09.262Z,0
2017-08-05T01:48:11.060Z,0
2017-08-05T01:49:12.434Z,0
2017-08-05T01:50:13.869Z,0
2017-08-05T01:51:15.251Z,0
2017-08-05T01:52:16.748Z,0
2017-08-05T01:53:18.130Z,0
2017-08-05T01:54:19.646Z,0
2017-08-05T01:55:21.007Z,0
2017-08-05T01:56:22.554Z,0
2017-08-05T01:57:24.699Z,0
2017-08-05T01:58:26.335Z,0
2017-08-05T01:59:28.113Z,0
2017-08-05T02:00:29.800Z,0
2017-08-05T02:01:31.189Z,0
2017-08-05T02:02:32.685Z,0
2017-08-05T02:03:34.058Z,0
2017-08-05T02:04:35.564Z,0
2017-08-05T02:05:36.978Z,0
2017-08-05T02:06:40.323Z,0
2017-08-05T02:07:42.114Z,0
2017-08-05T02:08:43.834Z,0
2017-08-05T02:09:45.207Z,0
2017-08-05T02:10:46.664Z,0
2017-08-05T02:11:49.194Z,0
2017-08-05T02:12:50.784Z,0
2017-08-05T02:13:52.153Z,0
2017-08-05T02:14:53.656Z,0
2017-08-05T02:15:55.034Z,0
2017-08-05T02:16:56.534Z,0
2017-08-05T02:17:57.913Z,0
2017-08-05T02:18:59.414Z,0
2017-08-05T02:20:00.791Z,0
2017-08-05T02:21:02.316Z,0
2017-08-05T02:22:04.075Z,0
2017-08-05T02:23:05.483Z,0
2017-08-05T02:24:06.862Z,0
2017-08-05T02:25:08.363Z,0
2017-08-05T02:26:09.744Z,0
2017-08-05T02:27:11.244Z,0
2017-08-05T02:28:12.630Z,0
2017-08-05T02:29:14.124Z,0
2017-08-05T02:30:15.501Z,0
2017-08-05T02:31:17.003Z,0
2017-08-05T02:32:18.382Z,0
2017-08-05T02:33:20.641Z,0
2017-08-05T02:34:22.013Z,0
2017-08-05T02:35:23.694Z,0
2017-08-05T02:36:25.077Z,0
2017-08-05T02:37:26.568Z,0
2017-08-05T02:38:27.946Z,0
2017-08-05T02:39:29.458Z,0
2017-08-05T02:40:30.856Z,0
2017-08-05T02:41:32.354Z,0
2017-08-05T02:42:33.748Z,0
2017-08-05T02:43:35.216Z,0
2017-08-05T02:44:36.594Z,0
2017-08-05T02:45:38.092Z,0
2017-08-05T02:46:39.466Z,0
2017-08-05T02:47:40.969Z,0
2017-08-05T02:48:42.409Z,0
2017-08-05T02:49:43.849Z,0
2017-08-05T02:50:45.240Z,0
2017-08-05T02:51:46.734Z,0
2017-08-05T02:52:48.111Z,0
2017-08-05T02:53:49.609Z,0
2017-08-05T02:54:50.989Z,0
2017-08-05T02:55:52.506Z,0
2017-08-05T02:56:53.888Z,0
2017-08-05T02:57:55.374Z,0
2017-08-05T02:58:56.750Z,0
2017-08-05T02:59:58.252Z,0
2017-08-05T03:00:59.632Z,0
2017-08-05T03:02:01.135Z,0
2017-08-05T03:03:02.544Z,0
2017-08-05T03:04:04.016Z,0
2017-08-05T03:05:05.693Z,0
2017-08-05T03:06:07.212Z,0
2017-08-05T03:07:08.584Z,0
2017-08-05T03:08:10.084Z,0
2017-08-05T03:09:11.458Z,0
2017-08-05T03:10:12.960Z,0
2017-08-05T03:11:14.398Z,0
2017-08-05T03:12:15.845Z,0
2017-08-05T03:13:17.221Z,0
2017-08-05T03:14:18.726Z,0
2017-08-05T03:15:20.105Z,0
2017-08-05T03:16:21.980Z,0
2017-08-05T03:17:23.386Z,0
2017-08-05T03:18:24.816Z,0
2017-08-05T03:19:26.191Z,0
2017-08-05T03:20:27.674Z,0
2017-08-05T03:21:29.050Z,0
2017-08-05T03:22:30.553Z,0
2017-08-05T03:23:32.311Z,0
2017-08-05T03:24:33.746Z,0
2017-08-05T03:25:35.136Z,0
2017-08-05T03:26:36.625Z,0
2017-08-05T03:27:38.002Z,0
2017-08-05T03:28:39.511Z,0
2017-08-05T03:29:41.263Z,0
2017-08-05T03:30:42.689Z,0
2017-08-05T03:31:44.066Z,4
2017-08-05T03:32:45.569Z,4
2017-08-05T03:33:46.950Z,0
2017-08-05T03:34:48.455Z,0
2017-08-05T03:35:49.826Z,4
2017-08-05T03:36:52.074Z,4
2017-08-05T03:37:53.462Z,4
2017-08-05T03:38:55.133Z,4
2017-08-05T03:39:56.512Z,4
2017-08-05T03:40:58.019Z,4
2017-08-05T03:41:59.391Z,8
2017-08-05T03:43:01.271Z,8
2017-08-05T03:44:02.654Z,8
2017-08-05T03:45:04.085Z,16
2017-08-05T03:46:05.465Z,12
2017-08-05T03:47:06.963Z,20
2017-08-05T03:48:08.344Z,20
2017-08-05T03:49:09.865Z,20
2017-08-05T03:50:11.232Z,24
2017-08-05T03:51:12.734Z,28
2017-08-05T03:52:14.117Z,32
2017-08-05T03:53:16.016Z,40
2017-08-05T03:54:17.397Z,48
2017-08-05T03:55:18.795Z,52
2017-08-05T03:56:20.171Z,68
2017-08-05T03:57:21.674Z,76
2017-08-05T03:58:23.056Z,88
2017-08-05T03:59:24.555Z,96
2017-08-05T04:00:25.947Z,104
2017-08-05T04:01:27.432Z,116
2017-08-05T04:02:28.827Z,124
2017-08-05T04:03:30.324Z,124
2017-08-05T04:04:31.701Z,112
2017-08-05T04:05:33.202Z,116
2017-08-05T04:06:34.581Z,124
2017-08-05T04:07:36.078Z,144
2017-08-05T04:08:37.463Z,156
2017-08-05T04:09:38.958Z,156
2017-08-05T04:10:40.340Z,164
2017-08-05T04:11:41.837Z,180
2017-08-05T04:12:43.242Z,192
2017-08-05T04:13:44.724Z,196
2017-08-05T04:14:46.110Z,196
2017-08-05T04:15:47.603Z,204
2017-08-05T04:16:48.992Z,252
2017-08-05T04:17:50.479Z,288
2017-08-05T04:18:51.857Z,300
2017-08-05T04:19:53.375Z,292
2017-08-05T04:20:54.760Z,296
2017-08-05T04:21:56.242Z,300
2017-08-05T04:22:57.624Z,304
2017-08-05T04:23:59.121Z,312
2017-08-05T04:25:00.509Z,328
2017-08-05T04:26:02.003Z,352
2017-08-05T04:27:03.383Z,396
2017-08-05T04:28:04.883Z,428
2017-08-05T04:29:06.272Z,424
2017-08-05T04:30:07.760Z,424
2017-08-05T04:31:09.455Z,464
2017-08-05T04:32:10.958Z,520
2017-08-05T04:33:12.327Z,544
2017-08-05T04:34:13.723Z,544
2017-08-05T04:35:15.473Z,536
2017-08-05T04:36:17.404Z,532
2017-08-05T04:37:18.795Z,564
2017-08-05T04:38:20.202Z,596
2017-08-05T04:39:21.611Z,616
2017-08-05T04:40:23.086Z,616
2017-08-05T04:41:24.464Z,652
2017-08-05T04:42:25.984Z,712
2017-08-05T04:43:27.348Z,828
2017-08-05T04:44:29.234Z,1024
2017-08-05T04:45:30.619Z,1196
2017-08-05T04:46:32.037Z,1284
2017-08-05T04:47:33.418Z,1264
2017-08-05T04:48:34.914Z,1276
2017-08-05T04:49:36.298Z,1368
2017-08-05T04:50:37.796Z,1412
2017-08-05T04:51:39.560Z,1432
2017-08-05T04:52:40.979Z,1528
2017-08-05T04:53:42.364Z,1708
2017-08-05T04:54:43.859Z,1888
2017-08-05T04:55:45.242Z,1964
2017-08-05T04:56:46.743Z,2000
2017-08-05T04:57:48.128Z,2084
2017-08-05T04:58:50.004Z,2200
2017-08-05T04:59:51.393Z,2312
2017-08-05T05:00:52.811Z,2344
2017-08-05T05:01:54.188Z,2340
2017-08-05T05:02:55.690Z,2280
2017-08-05T05:03:57.077Z,2228
2017-08-05T05:04:58.571Z,2136
2017-08-05T05:05:59.960Z,2000
2017-08-05T05:07:01.453Z,1824
2017-08-05T05:08:02.832Z,1592
2017-08-05T05:09:04.331Z,1372
2017-08-05T05:10:05.715Z,1312
2017-08-05T05:11:07.214Z,1520
2017-08-05T05:12:08.599Z,1884
2017-08-05T05:13:10.095Z,2140
2017-08-05T05:14:11.479Z,2176
2017-08-05T05:15:12.975Z,2064
2017-08-05T05:16:14.365Z,2028
2017-08-05T05:17:15.856Z,2164
2017-08-05T05:18:17.241Z,2504
2017-08-05T05:19:19.126Z,3056
2017-08-05T05:20:20.505Z,3492
2017-08-05T05:21:21.922Z,3252
2017-08-05T05:22:23.306Z,2664
2017-08-05T05:23:24.799Z,2296
2017-08-05T05:24:26.190Z,2252
2017-08-05T05:25:27.684Z,2404
2017-08-05T05:26:29.089Z,2600
2017-08-05T05:27:30.941Z,2732
2017-08-05T05:28:32.324Z,2724
2017-08-05T05:29:33.751Z,2644
2017-08-05T05:30:35.133Z,2560
2017-08-05T05:31:36.633Z,2700
2017-08-05T05:32:38.019Z,3444
2017-08-05T05:33:39.513Z,4936
2017-08-05T05:34:40.899Z,6696
2017-08-05T05:35:42.388Z,8076
2017-08-05T05:36:43.778Z,8980
2017-08-05T05:37:45.274Z,9132
2017-08-05T05:38:46.656Z,8532
2017-08-05T05:39:48.155Z,7492
2017-08-05T05:40:49.537Z,6152
2017-08-05T05:41:51.031Z,5352
2017-08-05T05:42:52.421Z,4736
2017-08-05T05:43:53.914Z,4896
2017-08-05T05:44:55.293Z,4744
2017-08-05T05:45:56.793Z,4304
2017-08-05T05:46:58.179Z,4092
2017-08-05T05:47:59.676Z,3984
2017-08-05T05:49:01.059Z,4008
2017-08-05T05:50:02.556Z,3712
2017-08-05T05:51:03.936Z,3708
2017-08-05T05:52:05.437Z,3564
2017-08-05T05:53:06.818Z,3328
2017-08-05T05:54:08.321Z,3344
2017-08-05T05:55:09.700Z,3328
2017-08-05T05:56:11.204Z,3068
2017-08-05T05:57:12.582Z,2556
2017-08-05T05:58:14.079Z,2196
2017-08-05T05:59:15.460Z,1880
2017-08-05T06:00:16.960Z,1560
2017-08-05T06:01:18.343Z,1396
2017-08-05T06:02:19.839Z,1412
2017-08-05T06:03:21.224Z,1488
2017-08-05T06:04:22.722Z,1564
2017-08-05T06:05:24.102Z,1604
2017-08-05T06:06:25.596Z,1656
2017-08-05T06:07:26.982Z,1680
2017-08-05T06:08:28.478Z,1736
2017-08-05T06:09:29.864Z,1888
2017-08-05T06:10:31.362Z,2204
2017-08-05T06:11:32.752Z,2460
2017-08-05T06:12:34.240Z,2644
2017-08-05T06:13:35.643Z,2708
2017-08-05T06:14:37.120Z,2664
2017-08-05T06:15:38.507Z,2564
2017-08-05T06:16:40.011Z,2644
2017-08-05T06:17:41.402Z,2668
2017-08-05T06:18:42.882Z,2400
2017-08-05T06:19:44.264Z,1884
2017-08-05T06:20:45.767Z,1724
2017-08-05T06:21:47.150Z,1868
2017-08-05T06:22:48.643Z,2104
2017-08-05T06:23:50.027Z,2492
2017-08-05T06:24:51.522Z,2668
2017-08-05T06:25:52.912Z,3120
2017-08-05T06:26:54.404Z,3388
2017-08-05T06:27:55.789Z,3572
2017-08-05T06:28:57.282Z,3448
2017-08-05T06:29:58.665Z,3336
2017-08-05T06:31:00.163Z,3460
2017-08-05T06:32:01.550Z,3640
2017-08-05T06:33:03.046Z,3692
2017-08-05T06:34:04.424Z,3660
2017-08-05T06:35:05.925Z,3504
2017-08-05T06:36:07.303Z,3404
2017-08-05T06:37:08.807Z,3192
2017-08-05T06:38:10.189Z,3396
2017-08-05T06:39:11.688Z,3580
2017-08-05T06:40:13.098Z,3596
2017-08-05T06:41:14.565Z,3584
2017-08-05T06:42:15.991Z,3712
2017-08-05T06:43:17.444Z,3924
2017-08-05T06:44:18.845Z,3796
2017-08-05T06:45:20.328Z,3372
2017-08-05T06:46:21.712Z,3216
2017-08-05T06:47:23.206Z,3236
2017-08-05T06:48:24.585Z,3388
2017-08-05T06:49:26.092Z,3656
2017-08-05T06:50:27.471Z,3868
2017-08-05T06:51:28.967Z,4052
2017-08-05T06:52:30.353Z,4268
2017-08-05T06:53:31.847Z,4452
2017-08-05T06:54:33.247Z,4736
2017-08-05T06:55:34.730Z,5072
2017-08-05T06:56:36.182Z,5200
2017-08-05T06:57:37.628Z,5236
2017-08-05T06:58:39.383Z,5220
2017-08-05T06:59:40.798Z,5216
2017-08-05T07:00:42.194Z,5044
2017-08-05T07:01:43.676Z,4976
2017-08-05T07:02:45.078Z,4480
2017-08-05T07:03:46.557Z,4048
2017-08-05T07:04:48.318Z,4032
2017-08-05T07:05:49.745Z,3880
2017-08-05T07:06:51.134Z,3736
2017-08-05T07:07:52.624Z,4408
2017-08-05T07:08:54.013Z,4932
2017-08-05T07:09:55.504Z,5248
2017-08-05T07:10:56.888Z,6044
2017-08-05T07:11:58.386Z,6404
2017-08-05T07:12:59.771Z,5928
2017-08-05T07:14:01.649Z,5540
2017-08-05T07:15:03.045Z,5680
2017-08-05T07:16:04.467Z,6536
2017-08-05T07:17:05.864Z,7180
2017-08-05T07:18:07.376Z,7084
2017-08-05T07:19:08.763Z,6684
2017-08-05T07:20:10.256Z,6140
2017-08-05T07:21:11.824Z,5720
2017-08-05T07:22:13.403Z,5096
2017-08-05T07:23:14.790Z,4716
2017-08-05T07:24:16.283Z,4812
2017-08-05T07:25:17.694Z,5168
2017-08-05T07:26:19.186Z,5196
2017-08-05T07:27:20.580Z,5336
2017-08-05T07:28:22.054Z,5880
2017-08-05T07:29:23.510Z,6244
2017-08-05T07:30:24.982Z,6140
2017-08-05T07:31:26.451Z,6380
2017-08-05T07:32:28.268Z,7032
2017-08-05T07:33:29.731Z,7836
2017-08-05T07:34:31.389Z,8568
2017-08-05T07:35:32.807Z,8772
2017-08-05T07:36:34.556Z,9184
2017-08-05T07:37:36.076Z,9532
2017-08-05T07:38:37.846Z,9732
2017-08-05T07:39:39.500Z,10148
2017-08-05T07:40:41.413Z,10976
2017-08-05T07:41:42.943Z,11240
2017-08-05T07:42:44.489Z,13268
2017-08-05T07:43:46.026Z,15172
2017-08-05T07:44:47.696Z,16764
2017-08-05T07:45:49.145Z,17072
2017-08-05T07:46:50.921Z,18368
2017-08-05T07:47:52.467Z,19840
2017-08-05T07:48:53.976Z,20608
2017-08-05T07:49:55.437Z,21632
2017-08-05T07:50:57.217Z,22848
2017-08-05T07:51:58.705Z,24000
2017-08-05T07:53:00.390Z,24416
2017-08-05T07:54:01.872Z,23680
2017-08-05T07:55:03.665Z,22560
2017-08-05T07:56:05.207Z,21568
2017-08-05T07:57:07.063Z,21568
2017-08-05T07:58:08.709Z,21984
2017-08-05T07:59:10.322Z,21984
2017-08-05T08:00:12.028Z,20928
2017-08-05T08:01:14.180Z,19872
2017-08-05T08:02:15.596Z,19072
2017-08-05T08:03:17.271Z,18496
2017-08-05T08:04:18.752Z,17580
2017-08-05T08:05:20.420Z,16156
2017-08-05T08:06:21.885Z,14244
2017-08-05T08:07:23.560Z,12512
2017-08-05T08:08:25.026Z,11988
2017-08-05T08:09:26.568Z,12764
2017-08-05T08:10:27.958Z,14576
2017-08-05T08:11:29.606Z,17888
2017-08-05T08:12:30.992Z,20512
2017-08-05T08:13:32.490Z,21248
2017-08-05T08:14:34.344Z,21312
2017-08-05T08:15:36.060Z,22368
2017-08-05T08:16:37.478Z,23328
2017-08-05T08:17:39.265Z,24128
2017-08-05T08:18:40.679Z,22848
2017-08-05T08:19:42.523Z,21056
2017-08-05T08:20:43.996Z,18784
2017-08-05T08:21:46.012Z,16444
2017-08-05T08:22:47.881Z,15548
2017-08-05T08:23:49.600Z,16052
2017-08-05T08:24:51.026Z,16612
2017-08-05T08:25:52.611Z,15776
2017-08-05T08:26:54.070Z,13576
2017-08-05T08:27:55.917Z,9288
2017-08-05T08:28:57.752Z,6460
2017-08-05T08:29:59.169Z,6276
2017-08-05T08:31:00.598Z,7620
2017-08-05T08:32:02.126Z,8384
2017-08-05T08:33:03.534Z,9160
2017-08-05T08:34:05.001Z,9396
2017-08-05T08:35:06.828Z,9296
2017-08-05T08:36:08.488Z,9344
2017-08-05T08:37:09.919Z,9392
2017-08-05T08:38:11.377Z,9216
2017-08-05T08:39:12.778Z,8884
2017-08-05T08:40:14.257Z,8504
2017-08-05T08:41:15.668Z,8148
2017-08-05T08:42:17.212Z,7880
2017-08-05T08:43:18.633Z,7888
2017-08-05T08:44:20.358Z,7976
2017-08-05T08:45:21.863Z,7888
2017-08-05T08:46:23.386Z,7628
2017-08-05T08:47:24.840Z,7392
2017-08-05T08:48:29.600Z,7248
2017-08-05T08:49:31.123Z,7228
2017-08-05T08:50:33.055Z,7412
2017-08-05T08:51:35.037Z,8120
2017-08-05T08:52:37.048Z,9728
2017-08-05T08:53:38.477Z,12316
2017-08-05T08:54:39.875Z,15388
2017-08-05T08:55:41.295Z,17976
2017-08-05T08:56:42.815Z,19168
2017-08-05T08:57:44.279Z,18816
2017-08-05T08:58:45.856Z,18176
2017-08-05T08:59:47.374Z,17580
2017-08-05T09:00:48.888Z,17368
2017-08-05T09:01:50.425Z,17444
2017-08-05T09:02:51.905Z,18080
2017-08-05T09:03:53.414Z,19040
2017-08-05T09:04:54.900Z,19840
2017-08-05T09:05:56.376Z,19104
2017-08-05T09:06:57.869Z,16772
2017-08-05T09:07:59.391Z,14752
2017-08-05T09:09:00.858Z,14740
2017-08-05T09:10:02.363Z,15820
2017-08-05T09:11:04.238Z,17124
2017-08-05T09:12:05.642Z,17824
2017-08-05T09:13:07.146Z,18080
2017-08-05T09:14:08.630Z,18816
2017-08-05T09:15:10.330Z,19200
2017-08-05T09:16:11.921Z,19520
2017-08-05T09:17:13.567Z,20640
2017-08-05T09:18:15.228Z,19072
2017-08-05T09:19:17.290Z,15204
2017-08-05T09:20:18.969Z,14944
2017-08-05T09:21:20.681Z,18208
2017-08-05T09:22:22.269Z,22304
2017-08-05T09:23:23.864Z,25568
2017-08-05T09:24:25.445Z,29088
2017-08-05T09:25:27.182Z,32576
2017-08-05T09:26:28.768Z,34080
2017-08-05T09:27:30.426Z,34784
2017-08-05T09:28:32.016Z,39872
2017-08-05T09:29:33.604Z,46016
2017-08-05T09:30:35.107Z,45312
2017-08-05T09:31:36.680Z,41056
2017-08-05T09:32:38.216Z,36672
2017-08-05T09:33:39.819Z,31520
2017-08-05T09:34:41.364Z,27104
2017-08-05T09:35:42.936Z,25728
2017-08-05T09:36:44.454Z,27456
2017-08-05T09:37:46.144Z,30528
2017-08-05T09:38:47.884Z,33728
2017-08-05T09:39:49.768Z,35840
2017-08-05T09:40:51.395Z,37120
2017-08-05T09:41:53.048Z,38752
2017-08-05T09:42:54.628Z,41728
2017-08-05T09:43:56.437Z,43424
2017-08-05T09:44:58.690Z,41856
2017-08-05T09:46:00.369Z,39872
2017-08-05T09:47:02.008Z,37920
2017-08-05T09:48:03.731Z,35808
2017-08-05T09:49:05.344Z,36160
2017-08-05T09:50:07.071Z,38656
2017-08-05T09:51:08.601Z,39552
2017-08-05T09:52:10.108Z,39104
2017-08-05T09:53:11.559Z,39744
2017-08-05T09:54:13.149Z,41312
2017-08-05T09:55:14.652Z,41792
2017-08-05T09:56:16.171Z,40256
2017-08-05T09:57:17.570Z,39552
2017-08-05T09:58:19.250Z,38432
2017-08-05T09:59:20.723Z,36192
2017-08-05T10:00:22.247Z,34464
2017-08-05T10:01:23.713Z,33952
2017-08-05T10:02:25.256Z,34496
2017-08-05T10:03:27.108Z,35392
2017-08-05T10:04:28.699Z,37088
2017-08-05T10:05:30.695Z,37824
2017-08-05T10:06:32.232Z,37984
2017-08-05T10:07:33.848Z,38368
2017-08-05T10:08:35.323Z,37408
2017-08-05T10:09:36.813Z,36640
2017-08-05T10:10:38.319Z,36480
2017-08-05T10:11:39.976Z,36640
2017-08-05T10:12:41.475Z,37376
2017-08-05T10:13:42.952Z,39616
2017-08-05T10:14:44.492Z,39392
2017-08-05T10:15:45.981Z,38144
2017-08-05T10:16:47.495Z,34272
2017-08-05T10:17:48.949Z,29888
2017-08-05T10:18:50.463Z,28192
2017-08-05T10:19:51.924Z,27232
2017-08-05T10:20:53.467Z,28960
2017-08-05T10:21:54.893Z,33984
2017-08-05T10:22:56.402Z,38080
2017-08-05T10:23:57.809Z,40544
2017-08-05T10:24:59.367Z,43904
2017-08-05T10:26:00.762Z,51616
2017-08-05T10:27:02.434Z,51936
2017-08-05T10:28:03.909Z,56160
2017-08-05T10:29:05.567Z,55136
2017-08-05T10:30:07.101Z,53632
2017-08-05T10:31:08.695Z,48320
2017-08-05T10:32:10.342Z,43072
2017-08-05T10:33:11.843Z,43840
2017-08-05T10:34:13.331Z,42432
2017-08-05T10:35:14.838Z,52608
2017-08-05T10:36:16.264Z,44384
2017-08-05T10:37:17.914Z,33312
2017-08-05T10:38:19.437Z,31328
2017-08-05T10:39:20.890Z,34432
2017-08-05T10:40:22.405Z,31520
2017-08-05T10:41:23.989Z,43456
2017-08-05T10:42:25.457Z,42304
2017-08-05T10:43:26.983Z,39040
2017-08-05T10:44:28.438Z,41664
2017-08-05T10:45:30.241Z,48832
2017-08-05T10:46:31.758Z,83456
2017-08-05T10:47:33.240Z,45440
2017-08-05T10:48:34.765Z,45536
2017-08-05T10:49:36.236Z,57952
2017-08-05T10:50:37.724Z,139008
2017-08-05T10:51:39.239Z,122336
2017-08-05T10:52:40.769Z,60704
2017-08-05T10:53:42.340Z,58240
2017-08-05T10:54:43.797Z,79040
2017-08-05T10:55:45.289Z,138496
2017-08-05T10:56:46.744Z,125088
2017-08-05T10:57:48.310Z,113760
2017-08-05T10:58:49.807Z,126592
2017-08-05T10:59:51.627Z,46240
2017-08-05T11:00:53.402Z,127424
2017-08-05T11:01:55.367Z,46208
2017-08-05T11:02:56.991Z,40576
2017-08-05T11:03:58.629Z,39776
2017-08-05T11:05:00.218Z,125824
2017-08-05T11:06:01.816Z,133952
2017-08-05T11:07:03.244Z,131264
2017-08-05T11:08:04.773Z,33984
2017-08-05T11:09:06.278Z,23872
2017-08-05T11:10:07.837Z,22112
2017-08-05T11:11:09.316Z,262140
